createdAt,value
2018-12-30T00:01:49.776Z,31.47
2018-12-30T00:04:19.655Z,29.43
2018-12-30T00:06:49.146Z,31.90
2018-12-30T00:09:18.390Z,27.77
2018-12-30T00:11:47.711Z,26.73
2018-12-30T00:14:16.974Z,28.43
2018-12-30T00:16:46.655Z,28.53
2018-12-30T00:19:15.799Z,27.03
2018-12-30T00:21:45.034Z,26.10
2018-12-30T00:24:14.274Z,28.10
2018-12-30T00:26:43.878Z,26.90
2018-12-30T00:29:13.141Z,27.73
2018-12-30T00:31:42.345Z,28.93
2018-12-30T00:34:11.498Z,31.60
2018-12-30T00:36:40.730Z,29.43
2018-12-30T00:39:09.890Z,29.57
2018-12-30T00:41:39.076Z,35.20
2018-12-30T00:44:08.361Z,30.77
2018-12-30T00:46:37.620Z,29.80
2018-12-30T00:49:06.760Z,29.33
2018-12-30T00:51:35.912Z,31.07
2018-12-30T00:54:05.317Z,31.33
2018-12-30T00:56:34.519Z,29.23
2018-12-30T00:59:03.708Z,27.87
2018-12-30T01:01:32.843Z,26.57
2018-12-30T01:04:02.050Z,30.43
2018-12-30T01:06:31.830Z,33.10
2018-12-30T01:09:01.145Z,31.23
2018-12-30T01:11:30.335Z,34.73
2018-12-30T01:13:59.516Z,30.13
2018-12-30T01:16:28.710Z,37.43
2018-12-30T01:18:57.917Z,28.60
2018-12-30T01:21:27.138Z,28.00
2018-12-30T01:23:56.343Z,30.60
2018-12-30T01:26:25.544Z,33.70
2018-12-30T01:28:54.691Z,33.67
2018-12-30T01:31:23.837Z,30.37
2018-12-30T01:33:53.447Z,33.43
2018-12-30T01:36:22.695Z,30.10
2018-12-30T01:38:51.892Z,27.60
2018-12-30T01:41:21.143Z,30.10
2018-12-30T01:43:50.221Z,29.10
2018-12-30T01:46:19.936Z,28.70
2018-12-30T01:48:49.134Z,31.07
2018-12-30T01:51:18.666Z,30.70
2018-12-30T01:53:47.802Z,24.87
2018-12-30T01:56:17.002Z,30.13
2018-12-30T01:58:46.831Z,28.20
2018-12-30T02:01:16.019Z,29.80
2018-12-30T02:03:45.210Z,29.97
2018-12-30T02:06:14.418Z,29.53
2018-12-30T02:08:43.609Z,28.43
2018-12-30T02:11:13.324Z,27.77
2018-12-30T02:13:42.466Z,29.93
2018-12-30T02:16:11.579Z,26.67
2018-12-30T02:18:40.722Z,29.00
2018-12-30T02:21:09.798Z,27.53
2018-12-30T02:23:39.561Z,28.73
2018-12-30T02:26:08.704Z,27.00
2018-12-30T02:28:37.875Z,25.37
2018-12-30T02:31:07.038Z,29.70
2018-12-30T02:33:36.255Z,31.03
2018-12-30T02:36:05.957Z,31.97
2018-12-30T02:38:35.070Z,28.50
2018-12-30T02:41:04.282Z,30.23
2018-12-30T02:43:33.486Z,27.40
2018-12-30T02:46:02.705Z,27.23
2018-12-30T02:48:32.159Z,29.47
2018-12-30T02:51:01.409Z,27.97
2018-12-30T02:53:30.587Z,29.23
2018-12-30T02:55:59.910Z,28.53
2018-12-30T02:58:29.054Z,27.30
2018-12-30T03:00:58.205Z,28.57
2018-12-30T03:03:27.337Z,26.87
2018-12-30T03:05:56.498Z,27.30
2018-12-30T03:08:26.089Z,25.27
2018-12-30T03:10:55.296Z,24.77
2018-12-30T03:13:24.452Z,26.57
2018-12-30T03:15:53.648Z,27.23
2018-12-30T03:18:22.808Z,27.40
2018-12-30T03:20:51.889Z,26.63
2018-12-30T03:23:21.476Z,26.73
2018-12-30T03:25:50.628Z,25.50
2018-12-30T03:28:19.774Z,26.83
2018-12-30T03:30:48.914Z,25.23
2018-12-30T03:33:18.042Z,26.93
2018-12-30T03:35:47.164Z,25.70
2018-12-30T03:38:16.341Z,27.33
2018-12-30T03:40:45.532Z,26.00
2018-12-30T03:43:14.620Z,26.73
2018-12-30T03:45:43.876Z,25.43
2018-12-30T03:48:13.034Z,27.97
2018-12-30T03:50:42.243Z,26.03
2018-12-30T03:53:11.346Z,25.17
2018-12-30T03:55:40.510Z,26.30
2018-12-30T03:58:09.645Z,26.43
2018-12-30T04:00:38.806Z,23.90
2018-12-30T04:03:07.933Z,26.37
2018-12-30T04:05:37.096Z,26.03
2018-12-30T04:08:06.226Z,24.40
2018-12-30T04:10:35.396Z,23.60
2018-12-30T04:13:05.112Z,24.20
2018-12-30T04:15:34.268Z,24.47
2018-12-30T04:18:03.453Z,24.83
2018-12-30T04:20:32.578Z,28.03
2018-12-30T04:23:02.066Z,31.63
2018-12-30T04:25:31.210Z,23.50
2018-12-30T04:28:00.441Z,22.60
2018-12-30T04:30:29.566Z,23.17
2018-12-30T04:32:58.727Z,23.13
2018-12-30T04:35:27.883Z,25.37
2018-12-30T04:37:57.212Z,22.67
2018-12-30T04:40:26.326Z,23.43
2018-12-30T04:42:55.465Z,25.53
2018-12-30T04:45:24.614Z,24.77
2018-12-30T04:47:53.816Z,25.47
2018-12-30T04:50:22.997Z,25.50
2018-12-30T04:52:52.128Z,25.63
2018-12-30T04:55:21.262Z,24.17
2018-12-30T04:57:50.376Z,24.47
2018-12-30T05:00:19.614Z,24.70
2018-12-30T05:02:48.814Z,24.97
2018-12-30T05:05:17.986Z,24.77
2018-12-30T05:07:47.148Z,24.80
2018-12-30T05:10:16.270Z,25.10
2018-12-30T05:12:45.408Z,24.63
2018-12-30T05:15:14.483Z,23.93
2018-12-30T05:17:43.658Z,22.73
2018-12-30T05:20:12.813Z,25.33
2018-12-30T05:22:42.074Z,24.40
2018-12-30T05:25:11.226Z,23.57
2018-12-30T05:27:40.358Z,22.37
2018-12-30T05:30:09.503Z,23.50
2018-12-30T05:32:38.655Z,23.90
2018-12-30T05:35:07.796Z,20.67
2018-12-30T05:37:36.942Z,23.70
2018-12-30T05:40:06.090Z,21.73
2018-12-30T05:42:35.237Z,24.47
2018-12-30T05:45:04.579Z,23.27
2018-12-30T05:47:33.727Z,22.03
2018-12-30T05:50:02.906Z,21.17
2018-12-30T05:52:31.981Z,24.87
2018-12-30T05:55:01.128Z,22.73
2018-12-30T05:57:30.226Z,23.53
2018-12-30T05:59:59.367Z,23.40
2018-12-30T06:02:28.505Z,23.77
2018-12-30T06:04:57.659Z,20.73
2018-12-30T06:07:26.787Z,23.00
2018-12-30T06:09:56.259Z,22.33
2018-12-30T06:12:25.398Z,21.93
2018-12-30T06:14:54.583Z,20.80
2018-12-30T06:17:23.705Z,22.77
2018-12-30T06:19:52.839Z,23.23
2018-12-30T06:22:21.989Z,21.83
2018-12-30T06:24:51.093Z,22.77
2018-12-30T06:27:20.265Z,21.10
2018-12-30T06:29:49.363Z,21.80
2018-12-30T06:32:18.514Z,21.20
2018-12-30T06:34:47.640Z,20.53
2018-12-30T06:37:16.783Z,22.47
2018-12-30T06:39:45.945Z,20.80
2018-12-30T06:42:15.090Z,20.37
2018-12-30T06:44:44.215Z,20.23
2018-12-30T06:47:13.339Z,19.93
2018-12-30T06:49:42.661Z,19.70
2018-12-30T06:52:11.775Z,19.00
2018-12-30T06:54:40.927Z,20.23
2018-12-30T06:57:10.067Z,18.77
2018-12-30T06:59:39.225Z,19.90
2018-12-30T07:02:08.336Z,19.53
2018-12-30T07:04:37.485Z,21.07
2018-12-30T07:07:06.615Z,19.57
2018-12-30T07:09:35.839Z,21.63
2018-12-30T07:12:05.000Z,18.90
2018-12-30T07:14:34.165Z,19.20
2018-12-30T07:17:03.295Z,20.03
2018-12-30T07:19:32.438Z,19.40
2018-12-30T07:22:01.594Z,20.27
2018-12-30T07:24:30.775Z,22.40
2018-12-30T07:26:59.965Z,21.27
2018-12-30T07:29:29.084Z,20.27
2018-12-30T07:31:58.301Z,19.60
2018-12-30T07:34:27.414Z,20.80
2018-12-30T07:36:56.588Z,19.00
2018-12-30T07:39:25.788Z,21.53
2018-12-30T07:41:54.974Z,22.50
2018-12-30T07:44:24.141Z,23.23
2018-12-30T07:46:53.277Z,23.43
2018-12-30T07:49:22.437Z,22.30
2018-12-30T07:51:51.563Z,22.17
2018-12-30T07:54:20.713Z,23.63
2018-12-30T07:56:49.841Z,25.50
2018-12-30T07:59:18.988Z,23.67
2018-12-30T08:01:48.113Z,21.83
2018-12-30T08:04:17.367Z,22.93
2018-12-30T08:06:46.502Z,22.97
2018-12-30T08:09:15.881Z,22.47
2018-12-30T08:11:45.018Z,22.00
2018-12-30T08:14:14.181Z,22.83
2018-12-30T08:16:43.340Z,22.37
2018-12-30T08:19:12.473Z,22.00
2018-12-30T08:21:41.701Z,25.97
2018-12-30T08:24:10.833Z,23.33
2018-12-30T08:26:39.975Z,24.23
2018-12-30T08:29:09.098Z,24.23
2018-12-30T08:31:38.350Z,24.07
2018-12-30T08:34:07.527Z,22.30
2018-12-30T08:36:36.740Z,27.60
2018-12-30T08:39:07.955Z,21.80
2018-12-30T08:41:37.171Z,24.57
2018-12-30T08:44:06.284Z,22.50
2018-12-30T08:46:35.490Z,25.63
2018-12-30T08:49:04.605Z,23.23
2018-12-30T08:51:33.731Z,23.67
2018-12-30T08:54:02.951Z,26.20
2018-12-30T08:56:32.111Z,24.90
2018-12-30T08:59:01.268Z,23.53
2018-12-30T09:01:30.392Z,24.07
2018-12-30T09:03:59.620Z,24.73
2018-12-30T09:06:28.743Z,23.20
2018-12-30T09:08:58.176Z,23.73
2018-12-30T09:11:27.381Z,23.80
2018-12-30T09:13:56.534Z,21.27
2018-12-30T09:16:25.674Z,23.00
2018-12-30T09:18:54.911Z,24.47
2018-12-30T09:21:24.176Z,24.93
2018-12-30T09:23:53.292Z,25.57
2018-12-30T09:26:22.427Z,23.67
2018-12-30T09:28:51.655Z,23.97
2018-12-30T09:31:20.791Z,26.77
2018-12-30T09:33:49.908Z,22.47
2018-12-30T09:36:19.031Z,21.70
2018-12-30T09:38:48.159Z,24.53
2018-12-30T09:41:17.357Z,23.53
2018-12-30T09:43:46.521Z,24.03
2018-12-30T09:46:15.938Z,24.37
2018-12-30T09:48:45.067Z,24.97
2018-12-30T09:51:14.242Z,23.83
2018-12-30T09:53:45.313Z,22.80
2018-12-30T09:56:14.374Z,24.53
2018-12-30T09:58:43.909Z,21.27
2018-12-30T10:01:13.056Z,21.67
2018-12-30T10:03:42.315Z,22.10
2018-12-30T10:06:11.543Z,20.93
2018-12-30T10:08:40.721Z,20.90
2018-12-30T10:11:09.863Z,20.60
2018-12-30T10:13:39.055Z,20.73
2018-12-30T10:16:08.203Z,20.70
2018-12-30T10:18:37.390Z,19.73
2018-12-30T10:21:25.608Z,20.53
2018-12-30T10:23:54.816Z,19.00
2018-12-30T10:26:23.972Z,20.97
2018-12-30T10:28:53.136Z,22.00
2018-12-30T10:31:22.316Z,20.23
2018-12-30T10:33:51.454Z,20.23
2018-12-30T10:36:20.629Z,19.17
2018-12-30T10:38:50.307Z,18.13
2018-12-30T10:41:19.496Z,17.33
2018-12-30T10:43:48.789Z,17.30
2018-12-30T10:46:18.248Z,20.80
2018-12-30T10:48:47.458Z,18.07
2018-12-30T10:51:16.610Z,17.03
2018-12-30T10:53:45.836Z,18.87
2018-12-30T10:56:15.030Z,16.60
2018-12-30T10:58:44.173Z,16.87
2018-12-30T11:01:13.312Z,19.43
2018-12-30T11:03:42.574Z,16.97
2018-12-30T11:06:11.706Z,16.30
2018-12-30T11:08:41.014Z,17.60
2018-12-30T11:11:10.242Z,16.47
2018-12-30T11:13:39.455Z,15.63
2018-12-30T11:16:08.682Z,15.70
2018-12-30T11:18:37.900Z,16.93
2018-12-30T11:21:07.109Z,16.53
2018-12-30T11:23:36.321Z,15.43
2018-12-30T11:26:05.458Z,16.07
2018-12-30T11:28:34.626Z,15.53
2018-12-30T11:31:04.727Z,14.83
2018-12-30T11:33:33.869Z,15.47
2018-12-30T11:36:03.043Z,15.40
2018-12-30T11:38:32.188Z,14.73
2018-12-30T11:41:01.443Z,14.07
2018-12-30T11:43:30.665Z,21.37
2018-12-30T11:45:59.848Z,13.97
2018-12-30T11:48:29.056Z,16.90
2018-12-30T11:50:58.268Z,15.77
2018-12-30T11:53:27.410Z,20.33
2018-12-30T11:55:56.576Z,19.17
2018-12-30T11:58:25.813Z,18.27
2018-12-30T12:00:55.078Z,36.50
2018-12-30T12:03:24.438Z,20.47
2018-12-30T12:05:53.651Z,22.33
2018-12-30T12:08:22.781Z,44.87
2018-12-30T12:10:51.929Z,91.33
2018-12-30T12:13:21.109Z,77.40
2018-12-30T12:15:50.265Z,40.60
2018-12-30T12:18:19.443Z,135.10
2018-12-30T12:20:48.591Z,132.50
2018-12-30T12:23:18.068Z,49.30
2018-12-30T12:25:47.218Z,117.97
2018-12-30T12:28:16.756Z,142.40
2018-12-30T12:30:45.910Z,121.87
2018-12-30T12:33:15.147Z,61.93
2018-12-30T12:35:44.386Z,76.00
2018-12-30T12:38:13.653Z,72.27
2018-12-30T12:40:42.823Z,23.97
2018-12-30T12:43:11.991Z,22.97
2018-12-30T12:45:41.205Z,21.03
2018-12-30T12:48:10.341Z,20.83
2018-12-30T12:50:39.502Z,21.80
2018-12-30T12:53:08.737Z,21.30
2018-12-30T12:55:37.903Z,19.93
2018-12-30T12:58:07.127Z,20.23
2018-12-30T13:00:36.363Z,19.67
2018-12-30T13:03:05.522Z,21.00
2018-12-30T13:05:34.703Z,20.00
2018-12-30T13:08:03.879Z,20.60
2018-12-30T13:10:33.133Z,19.53
2018-12-30T13:13:02.690Z,19.37
2018-12-30T13:15:31.846Z,20.03
2018-12-30T13:18:01.011Z,20.27
2018-12-30T13:20:30.285Z,18.30
2018-12-30T13:22:59.428Z,20.43
2018-12-30T13:25:28.582Z,21.23
2018-12-30T13:27:57.836Z,19.53
2018-12-30T13:30:26.968Z,18.90
2018-12-30T13:32:56.246Z,20.20
2018-12-30T13:35:25.440Z,20.43
2018-12-30T13:37:54.594Z,18.77
2018-12-30T13:40:23.893Z,18.53
2018-12-30T13:42:53.025Z,18.03
2018-12-30T13:45:22.205Z,17.13
2018-12-30T13:47:51.316Z,17.87
2018-12-30T13:50:20.522Z,16.17
2018-12-30T13:52:49.622Z,16.40
2018-12-30T13:55:18.800Z,16.30
2018-12-30T13:57:47.932Z,20.10
2018-12-30T14:00:17.093Z,17.63
2018-12-30T14:02:46.269Z,13.93
2018-12-30T14:05:15.542Z,13.37
2018-12-30T14:07:44.711Z,14.10
2018-12-30T14:10:13.982Z,13.33
2018-12-30T14:12:43.306Z,13.93
2018-12-30T14:15:12.451Z,11.77
2018-12-30T14:17:41.638Z,11.60
2018-12-30T14:20:10.868Z,16.30
2018-12-30T14:22:40.048Z,10.53
2018-12-30T14:25:09.176Z,12.77
2018-12-30T14:27:38.328Z,15.10
2018-12-30T14:30:08.770Z,13.13
2018-12-30T14:32:37.972Z,13.73
2018-12-30T14:35:07.198Z,23.87
2018-12-30T14:37:36.370Z,16.73
2018-12-30T14:40:05.679Z,13.37
2018-12-30T14:42:34.864Z,13.70
2018-12-30T14:45:04.485Z,13.73
2018-12-30T14:47:33.698Z,14.53
2018-12-30T14:50:02.831Z,17.33
2018-12-30T14:52:32.030Z,11.90
2018-12-30T14:55:03.720Z,12.80
2018-12-30T14:57:32.164Z,9.67
2018-12-30T15:00:01.310Z,13.93
2018-12-30T15:02:30.472Z,13.17
2018-12-30T15:04:59.662Z,11.63
2018-12-30T15:07:28.893Z,13.47
2018-12-30T15:09:58.002Z,12.67
2018-12-30T15:12:27.245Z,15.33
2018-12-30T15:14:56.400Z,12.77
2018-12-30T15:17:25.567Z,11.97
2018-12-30T15:19:54.713Z,12.10
2018-12-30T15:22:23.890Z,11.97
2018-12-30T15:24:53.062Z,12.53
2018-12-30T15:27:22.474Z,12.83
2018-12-30T15:29:51.621Z,12.60
2018-12-30T15:32:20.798Z,11.80
2018-12-30T15:34:49.950Z,12.47
2018-12-30T15:37:19.231Z,11.80
2018-12-30T15:39:48.386Z,13.23
2018-12-30T15:42:18.985Z,12.30
2018-12-30T15:44:48.393Z,12.97
2018-12-30T15:47:17.618Z,13.07
2018-12-30T15:49:46.758Z,12.57
2018-12-30T15:52:16.011Z,13.27
2018-12-30T15:54:45.126Z,13.03
2018-12-30T15:57:14.285Z,12.87
2018-12-30T15:59:43.437Z,13.73
2018-12-30T16:02:12.674Z,13.00
2018-12-30T16:04:41.826Z,25.90
2018-12-30T16:07:11.011Z,14.40
2018-12-30T16:09:40.160Z,15.07
2018-12-30T16:12:09.397Z,15.43
2018-12-30T16:14:38.540Z,14.40
2018-12-30T16:17:07.745Z,15.37
2018-12-30T16:19:36.880Z,62.80
2018-12-30T16:22:06.030Z,54.53
2018-12-30T16:24:35.277Z,18.00
2018-12-30T16:27:04.605Z,17.27
2018-12-30T16:29:33.815Z,16.63
2018-12-30T16:32:02.943Z,17.97
2018-12-30T16:34:32.631Z,17.30
2018-12-30T16:37:01.887Z,19.37
2018-12-30T16:39:31.017Z,17.83
2018-12-30T16:42:00.147Z,18.73
2018-12-30T16:44:29.285Z,31.07
2018-12-30T16:46:58.409Z,22.80
2018-12-30T16:49:27.567Z,20.23
2018-12-30T16:51:57.363Z,19.90
2018-12-30T16:54:26.541Z,18.27
2018-12-30T16:56:55.943Z,17.03
2018-12-30T16:59:25.141Z,18.83
2018-12-30T17:01:54.293Z,16.60
2018-12-30T17:04:23.479Z,17.40
2018-12-30T17:06:52.636Z,17.07
2018-12-30T17:09:21.834Z,18.23
2018-12-30T17:11:50.946Z,17.27
2018-12-30T17:14:20.134Z,19.07
2018-12-30T17:16:49.283Z,17.67
2018-12-30T17:19:18.448Z,16.50
2018-12-30T17:21:47.611Z,19.93
2018-12-30T17:24:16.785Z,19.03
2018-12-30T17:26:45.964Z,18.83
2018-12-30T17:29:15.092Z,20.70
2018-12-30T17:31:44.248Z,24.53
2018-12-30T17:34:13.552Z,23.43
2018-12-30T17:36:42.706Z,21.77
2018-12-30T17:39:11.939Z,19.63
2018-12-30T17:41:41.118Z,19.97
2018-12-30T17:44:10.302Z,19.47
2018-12-30T17:46:39.468Z,19.70
2018-12-30T17:49:08.704Z,21.00
2018-12-30T17:51:37.889Z,25.08
2018-12-30T17:54:07.124Z,23.10
2018-12-30T17:56:36.331Z,22.93
2018-12-30T17:59:05.497Z,23.53
2018-12-30T18:01:34.736Z,22.37
2018-12-30T18:04:03.932Z,20.73
2018-12-30T18:06:33.212Z,23.67
2018-12-30T18:09:02.421Z,21.50
2018-12-30T18:11:31.660Z,22.50
2018-12-30T18:14:00.914Z,22.43
2018-12-30T18:16:30.168Z,24.03
2018-12-30T18:18:59.367Z,21.90
2018-12-30T18:21:28.527Z,25.57
2018-12-30T18:23:57.776Z,27.13
2018-12-30T18:26:26.942Z,25.97
2018-12-30T18:28:56.303Z,23.53
2018-12-30T18:31:25.440Z,25.63
2018-12-30T18:33:54.624Z,26.07
2018-12-30T18:36:23.744Z,26.70
2018-12-30T18:38:52.996Z,25.00
2018-12-30T18:41:22.140Z,26.77
2018-12-30T18:43:51.290Z,25.97
2018-12-30T18:46:20.606Z,27.40
2018-12-30T18:48:49.928Z,28.20
2018-12-30T18:51:19.135Z,29.63
2018-12-30T18:53:48.316Z,30.77
2018-12-30T18:56:17.534Z,30.87
2018-12-30T18:58:46.797Z,30.87
2018-12-30T19:01:15.974Z,34.20
2018-12-30T19:03:45.156Z,34.63
2018-12-30T19:06:14.462Z,33.60
2018-12-30T19:08:43.719Z,33.23
2018-12-30T19:11:12.873Z,32.30
2018-12-30T19:13:42.054Z,32.70
2018-12-30T19:16:11.191Z,35.80
2018-12-30T19:18:40.497Z,33.23
2018-12-30T19:21:09.641Z,34.10
2018-12-30T19:23:38.869Z,36.67
2018-12-30T19:26:14.225Z,37.87
2018-12-30T19:28:39.017Z,37.27
2018-12-30T19:31:08.262Z,37.37
2018-12-30T19:33:37.511Z,35.77
2018-12-30T19:36:06.797Z,34.03
2018-12-30T19:38:35.967Z,35.57
2018-12-30T19:41:05.131Z,37.40
2018-12-30T19:43:34.310Z,34.47
2018-12-30T19:46:04.111Z,35.83
2018-12-30T19:48:33.490Z,35.83
2018-12-30T19:51:02.660Z,36.67
2018-12-30T19:53:31.903Z,33.40
2018-12-30T19:56:01.069Z,35.10
2018-12-30T19:58:30.296Z,33.43
2018-12-30T20:00:59.445Z,33.37
2018-12-30T20:03:28.662Z,35.30
2018-12-30T20:05:57.859Z,31.60
2018-12-30T20:08:27.086Z,33.33
2018-12-30T20:10:56.235Z,30.83
2018-12-30T20:13:25.405Z,31.83
2018-12-30T20:15:54.523Z,32.77
2018-12-30T20:18:23.821Z,29.40
2018-12-30T20:20:52.964Z,32.30
2018-12-30T20:23:22.217Z,30.57
2018-12-30T20:25:51.483Z,28.93
2018-12-30T20:28:20.659Z,28.17
2018-12-30T20:30:49.957Z,29.50
2018-12-30T20:33:19.283Z,31.20
2018-12-30T20:35:48.559Z,28.07
2018-12-30T20:38:17.736Z,29.07
2018-12-30T20:40:47.014Z,27.80
2018-12-30T20:43:16.294Z,25.80
2018-12-30T20:45:45.494Z,26.67
2018-12-30T20:48:14.797Z,24.30
2018-12-30T20:50:43.979Z,22.13
2018-12-30T20:53:13.229Z,23.70
2018-12-30T20:55:42.604Z,26.27
2018-12-30T20:58:11.860Z,24.43
2018-12-30T21:00:41.208Z,23.10
2018-12-30T21:03:10.593Z,25.53
2018-12-30T21:05:39.869Z,24.70
2018-12-30T21:08:09.108Z,25.50
2018-12-30T21:10:38.514Z,26.00
2018-12-30T21:13:07.728Z,25.40
2018-12-30T21:15:36.949Z,25.83
2018-12-30T21:18:06.160Z,25.40
2018-12-30T21:20:35.446Z,40.37
2018-12-30T21:23:04.681Z,30.87
2018-12-30T21:25:34.024Z,27.43
2018-12-30T21:28:03.271Z,29.63
2018-12-30T21:30:32.653Z,27.00
2018-12-30T21:33:01.916Z,29.23
2018-12-30T21:35:31.265Z,27.23
2018-12-30T21:38:00.549Z,30.33
2018-12-30T21:40:29.769Z,28.77
2018-12-30T21:42:58.931Z,28.37
2018-12-30T21:45:28.160Z,29.87
2018-12-30T21:47:57.313Z,30.63
2018-12-30T21:50:26.535Z,30.93
2018-12-30T21:52:55.679Z,30.20
2018-12-30T21:55:24.925Z,34.27
2018-12-30T21:57:54.087Z,33.13
2018-12-30T22:00:23.249Z,29.67
2018-12-30T22:02:52.403Z,31.00
2018-12-30T22:05:21.611Z,36.83
2018-12-30T22:07:50.765Z,32.87
2018-12-30T22:10:20.002Z,33.13
2018-12-30T22:12:49.151Z,31.90
2018-12-30T22:15:18.478Z,31.23
2018-12-30T22:17:47.726Z,32.87
2018-12-30T22:20:16.922Z,35.13
2018-12-30T22:22:46.091Z,30.33
2018-12-30T22:25:15.324Z,37.60
2018-12-30T22:27:44.465Z,33.80
2018-12-30T22:30:13.633Z,34.47
2018-12-30T22:32:42.822Z,34.83
2018-12-30T22:35:11.999Z,33.43
2018-12-30T22:37:41.198Z,32.30
2018-12-30T22:40:10.357Z,32.63
2018-12-30T22:42:39.502Z,36.37
2018-12-30T22:45:08.659Z,36.53
2018-12-30T22:47:37.836Z,41.30
2018-12-30T22:50:07.125Z,33.07
2018-12-30T22:52:36.243Z,42.77
2018-12-30T22:55:05.736Z,33.87
2018-12-30T22:57:35.006Z,35.73
2018-12-30T23:00:06.687Z,36.90
2018-12-30T23:02:35.910Z,38.00
2018-12-30T23:05:05.147Z,36.57
2018-12-30T23:07:34.281Z,45.47
2018-12-30T23:10:03.436Z,38.60
2018-12-30T23:12:32.593Z,33.53
2018-12-30T23:15:01.749Z,42.50
2018-12-30T23:17:30.999Z,37.77
2018-12-30T23:20:00.261Z,40.40
2018-12-30T23:22:29.508Z,38.67
2018-12-30T23:24:58.655Z,38.37
2018-12-30T23:27:27.794Z,44.47
2018-12-30T23:29:56.971Z,39.87
2018-12-30T23:32:26.088Z,61.23
2018-12-30T23:34:55.667Z,79.00
2018-12-30T23:37:24.833Z,42.63
2018-12-30T23:39:54.212Z,51.30
2018-12-30T23:42:23.652Z,39.83
2018-12-30T23:44:52.840Z,39.33
2018-12-30T23:47:21.970Z,48.30
2018-12-30T23:49:51.204Z,36.23
2018-12-30T23:52:20.344Z,44.97
2018-12-30T23:54:49.545Z,41.37
2018-12-30T23:57:18.723Z,33.43
2018-12-30T23:59:47.884Z,44.20
